createdAt,value
2019-02-26T00:04:32.145Z,8.17
2019-02-26T00:07:04.833Z,7.07
2019-02-26T00:09:35.017Z,7.60
2019-02-26T00:13:01.695Z,7.10
2019-02-26T00:15:31.305Z,8.00
2019-02-26T00:18:37.569Z,7.67
2019-02-26T00:21:05.093Z,7.57
2019-02-26T00:23:32.202Z,7.70
2019-02-26T00:29:01.850Z,7.20
2019-02-26T00:34:47.705Z,8.13
2019-02-26T00:37:14.874Z,8.43
2019-02-26T00:40:01.906Z,7.23
2019-02-26T00:43:09.884Z,8.03
2019-02-26T00:48:40.700Z,8.57
2019-02-26T00:51:48.277Z,8.07
2019-02-26T00:54:24.503Z,7.77
2019-02-26T00:57:01.039Z,7.47
2019-02-26T00:59:36.385Z,7.70
2019-02-26T01:02:49.622Z,7.60
2019-02-26T01:05:16.938Z,7.60
2019-02-26T01:08:24.997Z,7.77
2019-02-26T01:10:52.194Z,7.20
2019-02-26T01:13:20.306Z,7.80
2019-02-26T01:15:58.124Z,8.17
2019-02-26T01:18:26.771Z,7.87
2019-02-26T01:21:02.519Z,8.30
2019-02-26T01:23:35.552Z,8.23
2019-02-26T01:26:43.637Z,8.30
2019-02-26T01:32:31.219Z,7.53
2019-02-26T01:34:58.390Z,8.47
2019-02-26T01:37:27.715Z,7.63
2019-02-26T01:40:18.253Z,8.30
2019-02-26T01:42:52.426Z,8.93
2019-02-26T01:45:30.350Z,7.33
2019-02-26T01:48:06.292Z,8.07
2019-02-26T01:50:40.650Z,7.30
2019-02-26T01:53:15.156Z,7.60
2019-02-26T01:55:50.538Z,8.47
2019-02-26T01:58:24.293Z,7.43
2019-02-26T02:00:55.327Z,7.90
2019-02-26T02:06:41.327Z,7.10
2019-02-26T02:09:18.134Z,7.90
2019-02-26T02:14:52.547Z,8.40
2019-02-26T02:18:01.773Z,8.47
2019-02-26T02:20:35.579Z,7.50
2019-02-26T02:23:04.694Z,8.10
2019-02-26T02:26:04.214Z,7.00
2019-02-26T02:28:36.389Z,7.10
2019-02-26T02:31:03.708Z,7.93
2019-02-26T02:33:50.390Z,7.23
2019-02-26T02:36:58.476Z,7.60
2019-02-26T02:39:26.602Z,7.00
2019-02-26T02:42:00.838Z,8.17
2019-02-26T02:44:28.006Z,8.13
2019-02-26T02:46:55.242Z,7.40
2019-02-26T02:50:05.586Z,8.77
2019-02-26T02:52:38.549Z,7.93
2019-02-26T02:55:06.878Z,7.80
2019-02-26T02:57:55.960Z,7.10
2019-02-26T03:00:32.174Z,7.60
2019-02-26T03:06:09.694Z,7.73
2019-02-26T03:08:45.291Z,7.20
2019-02-26T03:11:18.879Z,7.57
2019-02-26T03:13:48.370Z,7.70
2019-02-26T03:16:42.488Z,8.10
2019-02-26T03:19:17.024Z,7.03
2019-02-26T03:21:52.589Z,7.30
2019-02-26T03:24:30.235Z,7.83
2019-02-26T03:27:05.523Z,7.70
2019-02-26T03:29:32.773Z,6.60
2019-02-26T03:31:59.916Z,7.50
2019-02-26T03:37:08.958Z,6.90
2019-02-26T03:39:46.439Z,7.87
2019-02-26T03:42:16.670Z,7.67
2019-02-26T03:45:48.074Z,7.10
2019-02-26T03:48:20.882Z,7.33
2019-02-26T03:50:47.998Z,7.87
2019-02-26T03:53:15.172Z,7.60
2019-02-26T04:01:37.842Z,7.83
2019-02-26T04:04:07.581Z,7.40
2019-02-26T04:07:02.115Z,7.77
2019-02-26T04:09:39.115Z,7.07
2019-02-26T04:17:55.985Z,7.73
2019-02-26T04:20:44.338Z,8.30
2019-02-26T04:26:58.641Z,7.03
2019-02-26T04:30:05.917Z,7.40
2019-02-26T04:33:14.046Z,7.63
2019-02-26T04:36:42.783Z,7.63
2019-02-26T04:39:42.900Z,8.70
2019-02-26T04:42:59.528Z,7.70
2019-02-26T04:46:10.352Z,8.03
2019-02-26T04:49:16.617Z,7.27
2019-02-26T04:51:45.050Z,7.87
2019-02-26T04:54:33.738Z,8.00
2019-02-26T04:57:12.102Z,7.83
2019-02-26T05:02:52.516Z,8.00
2019-02-26T05:11:00.068Z,7.83
2019-02-26T05:13:48.392Z,6.90
2019-02-26T05:16:15.615Z,7.87
2019-02-26T05:18:45.889Z,7.57
2019-02-26T05:21:49.600Z,7.80
2019-02-26T05:27:50.984Z,6.10
2019-02-26T05:30:21.727Z,9.60
2019-02-26T05:32:57.021Z,7.80
2019-02-26T05:35:28.856Z,6.50
2019-02-26T05:37:58.317Z,6.67
2019-02-26T05:40:45.821Z,7.23
2019-02-26T05:44:03.999Z,7.13
2019-02-26T05:46:36.314Z,7.87
2019-02-26T05:49:05.786Z,6.50
2019-02-26T05:51:53.529Z,7.53
2019-02-26T05:54:52.636Z,6.67
2019-02-26T05:58:07.929Z,7.00
2019-02-26T06:00:42.861Z,6.70
2019-02-26T06:06:11.116Z,7.40
2019-02-26T06:08:39.306Z,7.40
2019-02-26T06:11:17.180Z,7.93
2019-02-26T06:13:52.099Z,7.80
2019-02-26T06:16:21.843Z,8.43
2019-02-26T06:22:31.746Z,7.30
2019-02-26T06:25:09.624Z,7.17
2019-02-26T06:27:39.940Z,7.83
2019-02-26T06:33:34.146Z,7.07
2019-02-26T06:36:21.057Z,7.50
2019-02-26T06:38:49.630Z,8.17
2019-02-26T06:41:39.586Z,7.77
2019-02-26T06:44:15.139Z,8.00
2019-02-26T06:50:18.882Z,7.70
2019-02-26T06:52:51.995Z,8.90
2019-02-26T06:55:19.242Z,8.57
2019-02-26T06:57:49.359Z,9.33
2019-02-26T07:03:26.662Z,7.73
2019-02-26T07:05:53.744Z,8.40
2019-02-26T07:08:23.741Z,9.93
2019-02-26T07:14:18.225Z,9.43
2019-02-26T07:20:00.381Z,11.43
2019-02-26T07:22:34.792Z,11.10
2019-02-26T07:25:16.598Z,10.33
2019-02-26T07:27:43.593Z,10.80
2019-02-26T07:33:15.049Z,9.07
2019-02-26T07:38:49.145Z,9.40
2019-02-26T07:41:27.847Z,10.50
2019-02-26T07:44:00.612Z,8.10
2019-02-26T07:46:27.813Z,8.87
2019-02-26T07:49:14.378Z,8.83
2019-02-26T07:51:43.013Z,10.00
2019-02-26T08:03:24.161Z,8.37
2019-02-26T08:06:12.120Z,7.77
2019-02-26T08:08:48.462Z,8.43
2019-02-26T08:11:20.636Z,8.10
2019-02-26T08:14:21.028Z,7.80
2019-02-26T08:16:51.363Z,8.00
2019-02-26T08:19:29.485Z,7.10
2019-02-26T08:31:23.320Z,7.60
2019-02-26T08:34:13.527Z,8.03
2019-02-26T08:36:46.760Z,7.07
2019-02-26T08:39:20.996Z,7.00
2019-02-26T08:42:08.268Z,7.17
2019-02-26T08:45:17.766Z,6.93
2019-02-26T08:48:02.864Z,6.87
2019-02-26T08:50:33.100Z,6.47
2019-02-26T08:57:00.732Z,6.13
2019-02-26T08:59:27.947Z,6.30
2019-02-26T09:01:55.114Z,6.03
2019-02-26T09:04:23.923Z,7.37
2019-02-26T09:07:11.164Z,6.63
2019-02-26T09:09:52.504Z,7.20
2019-02-26T09:12:19.917Z,7.17
2019-02-26T09:15:50.221Z,7.50
2019-02-26T09:24:54.349Z,6.70
2019-02-26T09:27:32.109Z,7.40
2019-02-26T09:39:15.454Z,8.40
2019-02-26T09:42:46.275Z,7.83
2019-02-26T09:45:22.435Z,8.40
2019-02-26T09:47:55.641Z,9.60
2019-02-26T09:50:29.254Z,9.30
2019-02-26T09:58:37.502Z,10.97
2019-02-26T10:01:45.717Z,10.43
2019-02-26T10:04:26.440Z,9.30
2019-02-26T10:06:53.843Z,10.40
2019-02-26T10:09:21.024Z,10.17
2019-02-26T10:12:10.027Z,10.30
2019-02-26T10:18:31.022Z,10.47
2019-02-26T10:23:54.166Z,11.40
2019-02-26T10:27:21.980Z,12.30
2019-02-26T10:29:49.957Z,11.27
2019-02-26T10:32:38.006Z,10.27
2019-02-26T10:38:10.756Z,10.87
2019-02-26T10:40:57.392Z,10.60
2019-02-26T10:43:34.586Z,10.83
2019-02-26T10:46:01.783Z,9.80
2019-02-26T10:51:32.168Z,10.10
2019-02-26T10:54:00.008Z,9.50
2019-02-26T10:57:18.829Z,10.73
2019-02-26T11:03:35.459Z,10.50
2019-02-26T11:06:01.804Z,10.13
2019-02-26T11:08:32.792Z,9.50
2019-02-26T11:14:08.343Z,8.43
2019-02-26T11:16:46.364Z,8.20
2019-02-26T11:19:55.581Z,9.20
2019-02-26T11:22:44.797Z,8.37
2019-02-26T11:31:31.359Z,8.90
2019-02-26T11:34:01.045Z,8.73
2019-02-26T11:36:36.554Z,7.60
2019-02-26T11:39:10.148Z,7.20
2019-02-26T11:54:20.350Z,7.80
2019-02-26T11:56:49.893Z,9.23
2019-02-26T11:59:38.571Z,6.90
2019-02-26T12:02:12.210Z,6.90
2019-02-26T12:04:39.412Z,6.90
2019-02-26T12:13:08.588Z,9.07
2019-02-26T12:15:38.403Z,6.30
2019-02-26T12:24:17.050Z,6.70
2019-02-26T12:26:45.293Z,6.87
2019-02-26T12:32:24.886Z,6.90
2019-02-26T12:35:33.353Z,6.27
2019-02-26T12:38:17.513Z,7.77
2019-02-26T12:40:46.298Z,6.50
2019-02-26T12:43:21.964Z,6.73
2019-02-26T12:46:02.138Z,6.70
2019-02-26T12:48:30.455Z,7.97
2019-02-26T12:50:58.499Z,8.77
2019-02-26T12:53:44.065Z,7.40
2019-02-26T12:56:20.575Z,8.10
2019-02-26T12:58:54.495Z,9.60
2019-02-26T13:01:33.247Z,9.70
2019-02-26T13:04:09.620Z,10.97
2019-02-26T13:07:22.879Z,9.37
2019-02-26T13:09:54.168Z,9.77
2019-02-26T13:12:38.966Z,10.27
2019-02-26T13:18:09.177Z,11.00
2019-02-26T13:20:59.542Z,11.30
2019-02-26T13:23:31.181Z,10.40
2019-02-26T13:26:51.700Z,10.50
2019-02-26T13:29:25.891Z,10.80
2019-02-26T13:31:56.529Z,10.53
2019-02-26T13:34:28.108Z,10.30
2019-02-26T13:39:56.664Z,9.70
2019-02-26T13:42:50.047Z,10.13
2019-02-26T13:46:00.699Z,9.50
2019-02-26T13:52:33.709Z,7.90
2019-02-26T14:04:03.065Z,6.97
2019-02-26T14:06:30.556Z,7.13
2019-02-26T14:09:17.309Z,6.70
2019-02-26T14:12:25.381Z,7.27
2019-02-26T14:14:52.601Z,5.80
2019-02-26T14:17:21.669Z,6.07
2019-02-26T14:19:49.731Z,5.80
2019-02-26T14:22:57.749Z,6.67
2019-02-26T14:25:24.960Z,4.07
2019-02-26T14:27:52.152Z,4.37
2019-02-26T14:30:19.373Z,5.30
2019-02-26T14:32:46.560Z,3.80
2019-02-26T14:38:27.364Z,2.50
2019-02-26T14:40:54.560Z,2.30
2019-02-26T14:43:21.759Z,3.87
2019-02-26T14:45:49.022Z,2.40
2019-02-26T14:48:16.909Z,2.70
2019-02-26T14:50:44.249Z,3.03
2019-02-26T14:53:11.703Z,2.67
2019-02-26T14:55:39.824Z,2.43
2019-02-26T14:58:07.391Z,2.27
2019-02-26T15:03:28.990Z,3.13
2019-02-26T15:05:56.156Z,3.33
2019-02-26T15:08:23.525Z,2.57
2019-02-26T15:10:50.743Z,3.67
2019-02-26T15:13:18.299Z,3.10
2019-02-26T15:15:45.530Z,3.47
2019-02-26T15:18:12.703Z,3.07
2019-02-26T15:21:20.749Z,3.83
2019-02-26T15:23:48.043Z,2.60
2019-02-26T15:26:15.707Z,2.50
2019-02-26T15:28:43.314Z,2.83
2019-02-26T15:31:13.184Z,2.73
2019-02-26T15:33:40.466Z,3.67
2019-02-26T15:36:07.764Z,3.03
2019-02-26T15:38:35.526Z,2.80
2019-02-26T15:41:04.138Z,2.57
2019-02-26T15:43:31.698Z,2.73
2019-02-26T15:45:59.788Z,3.33
2019-02-26T15:48:47.838Z,2.97
2019-02-26T15:51:19.876Z,2.83
2019-02-26T15:57:05.627Z,3.93
2019-02-26T15:59:52.340Z,3.07
2019-02-26T16:02:19.543Z,3.87
2019-02-26T16:08:07.090Z,3.03
2019-02-26T16:10:34.684Z,3.33
2019-02-26T16:13:04.901Z,2.60
2019-02-26T16:15:33.171Z,2.93
2019-02-26T16:18:00.272Z,2.90
2019-02-26T16:20:35.881Z,2.70
2019-02-26T16:26:38.466Z,3.63
2019-02-26T16:29:18.790Z,3.23
2019-02-26T16:32:29.319Z,3.47
2019-02-26T16:34:56.794Z,4.03
2019-02-26T16:37:45.667Z,4.90
2019-02-26T16:43:35.714Z,26.97
2019-02-26T16:46:14.505Z,6.20
2019-02-26T16:48:42.218Z,6.47
2019-02-26T16:51:09.302Z,18.77
2019-02-26T16:53:57.767Z,16.67
2019-02-26T16:56:24.999Z,18.60
2019-02-26T16:59:07.427Z,14.70
2019-02-26T17:08:17.355Z,26.50
2019-02-26T17:10:44.538Z,17.60
2019-02-26T17:13:11.730Z,16.67
2019-02-26T17:15:38.961Z,32.60
2019-02-26T17:18:16.093Z,12.97
2019-02-26T17:20:49.442Z,13.87
2019-02-26T17:25:54.655Z,8.93
2019-02-26T17:31:23.200Z,12.27
2019-02-26T17:42:33.379Z,9.80
2019-02-26T17:45:13.618Z,11.03
2019-02-26T17:48:00.541Z,9.57
2019-02-26T17:53:49.316Z,8.60
2019-02-26T17:56:28.769Z,8.63
2019-02-26T17:58:56.306Z,7.60
2019-02-26T18:01:23.930Z,7.47
2019-02-26T18:03:51.119Z,8.63
2019-02-26T18:06:18.747Z,8.50
2019-02-26T18:11:47.681Z,11.57
2019-02-26T18:14:15.051Z,8.53
2019-02-26T18:16:44.175Z,8.30
2019-02-26T18:19:13.036Z,8.27
2019-02-26T18:21:43.409Z,7.77
2019-02-26T18:24:19.737Z,8.97
2019-02-26T18:26:47.005Z,9.60
2019-02-26T18:29:26.222Z,10.00
2019-02-26T18:34:32.795Z,9.50
2019-02-26T18:37:00.014Z,8.07
2019-02-26T18:39:27.633Z,8.50
2019-02-26T18:41:55.000Z,8.93
2019-02-26T18:44:22.224Z,9.97
2019-02-26T18:46:49.405Z,7.60
2019-02-26T18:49:16.828Z,9.50
2019-02-26T18:51:44.029Z,9.77
2019-02-26T18:54:54.251Z,8.20
2019-02-26T18:57:27.507Z,9.47
2019-02-26T18:59:54.763Z,11.67
2019-02-26T19:02:22.247Z,9.00
2019-02-26T19:04:49.446Z,8.73
2019-02-26T19:07:16.681Z,9.10
2019-02-26T19:09:45.107Z,9.97
2019-02-26T19:12:22.876Z,11.20
2019-02-26T19:18:23.829Z,9.27
2019-02-26T19:20:51.049Z,9.93
2019-02-26T19:23:18.649Z,10.10
2019-02-26T19:25:45.904Z,9.60
2019-02-26T19:28:13.793Z,9.07
2019-02-26T19:30:41.569Z,9.30
2019-02-26T19:33:08.770Z,9.07
2019-02-26T19:35:40.181Z,8.30
2019-02-26T19:38:11.830Z,8.20
2019-02-26T19:44:14.205Z,9.53
2019-02-26T19:46:42.130Z,8.93
2019-02-26T19:49:09.314Z,10.37
2019-02-26T19:51:36.552Z,10.50
2019-02-26T19:54:04.743Z,9.60
2019-02-26T19:57:14.381Z,10.10
2019-02-26T20:00:01.176Z,8.83
2019-02-26T20:02:48.140Z,7.70
2019-02-26T20:05:15.374Z,7.03
2019-02-26T20:07:42.613Z,8.00
2019-02-26T20:13:12.614Z,7.10
2019-02-26T20:15:59.914Z,7.23
2019-02-26T20:18:27.168Z,6.73
2019-02-26T20:21:35.127Z,5.53
2019-02-26T20:24:02.616Z,5.70
2019-02-26T20:26:29.995Z,5.57
2019-02-26T20:29:16.715Z,5.17
2019-02-26T20:31:44.368Z,6.70
2019-02-26T20:37:13.101Z,6.40
2019-02-26T20:39:40.911Z,5.57
2019-02-26T20:42:19.557Z,7.20
2019-02-26T20:44:46.983Z,5.67
2019-02-26T20:47:14.243Z,7.03
2019-02-26T20:49:43.660Z,6.57
2019-02-26T20:58:31.828Z,5.90
2019-02-26T21:00:59.387Z,5.73
2019-02-26T21:03:37.744Z,5.33
2019-02-26T21:06:18.065Z,5.60
2019-02-26T21:08:45.916Z,5.83
2019-02-26T21:11:44.944Z,6.60
2019-02-26T21:14:12.240Z,5.50
2019-02-26T21:16:41.257Z,5.60
2019-02-26T21:19:08.976Z,5.60
2019-02-26T21:21:36.246Z,6.07
2019-02-26T21:24:03.467Z,6.10
2019-02-26T21:26:30.692Z,5.80
2019-02-26T21:29:11.911Z,6.60
2019-02-26T21:31:58.575Z,5.03
2019-02-26T21:34:47.495Z,5.77
2019-02-26T21:37:34.173Z,6.03
2019-02-26T21:40:01.419Z,5.33
2019-02-26T21:42:30.511Z,5.67
2019-02-26T21:50:54.515Z,5.60
2019-02-26T21:53:27.549Z,4.83
2019-02-26T21:55:55.650Z,8.43
2019-02-26T21:58:33.699Z,7.20
2019-02-26T22:01:00.918Z,6.97
2019-02-26T22:03:29.887Z,7.93
2019-02-26T22:06:05.067Z,7.60
2019-02-26T22:09:05.314Z,7.40
2019-02-26T22:11:33.199Z,7.30
2019-02-26T22:14:02.951Z,9.43
2019-02-26T22:16:35.530Z,10.67
2019-02-26T22:19:04.773Z,9.00
2019-02-26T22:22:28.089Z,9.47
2019-02-26T22:24:55.342Z,7.93
2019-02-26T22:27:22.518Z,7.93
2019-02-26T22:30:09.232Z,9.47
2019-02-26T22:32:38.782Z,8.00
2019-02-26T22:35:52.931Z,9.23
2019-02-26T22:38:39.897Z,8.70
2019-02-26T22:41:07.158Z,8.40
2019-02-26T22:43:36.176Z,7.83
2019-02-26T22:46:46.010Z,8.23
2019-02-26T22:54:54.619Z,8.87
2019-02-26T23:00:56.363Z,8.47
2019-02-26T23:03:23.540Z,7.83
2019-02-26T23:05:50.635Z,8.20
2019-02-26T23:11:52.421Z,9.23
2019-02-26T23:14:39.412Z,8.77
2019-02-26T23:17:47.312Z,9.00
2019-02-26T23:20:46.480Z,9.60
2019-02-26T23:27:07.713Z,8.43
2019-02-26T23:38:38.488Z,8.40
2019-02-26T23:41:46.484Z,8.47
2019-02-26T23:44:25.918Z,7.27
2019-02-26T23:46:53.079Z,6.70
2019-02-26T23:52:22.259Z,7.37
2019-02-26T23:54:49.878Z,7.83
2019-02-26T23:57:58.581Z,7.80
